createdAt,value
2023-02-04T00:00:38.817Z,-65
2023-02-04T00:05:40.166Z,-64
2023-02-04T00:10:41.450Z,-65
2023-02-04T00:15:42.628Z,-65
2023-02-04T00:20:43.878Z,-64
2023-02-04T00:25:45.113Z,-65
2023-02-04T00:30:47.377Z,-64
2023-02-04T00:35:48.845Z,-64
2023-02-04T00:40:50.011Z,-64
2023-02-04T00:45:51.347Z,-65
2023-02-04T00:50:53.976Z,-65
2023-02-04T00:55:55.181Z,-64
2023-02-04T01:00:56.497Z,-64
2023-02-04T01:05:57.743Z,-64
2023-02-04T01:10:58.958Z,-64
2023-02-04T01:16:00.189Z,-64
2023-02-04T01:21:01.558Z,-65
2023-02-04T01:26:02.720Z,-64
2023-02-04T01:31:04.015Z,-65
2023-02-04T01:36:05.203Z,-64
2023-02-04T01:41:06.391Z,-64
2023-02-04T01:46:07.661Z,-64
2023-02-04T01:51:08.828Z,-64
2023-02-04T01:56:10.089Z,-64
2023-02-04T02:01:11.294Z,-65
2023-02-04T02:06:12.658Z,-64
2023-02-04T02:11:13.868Z,-64
2023-02-04T02:16:15.147Z,-64
2023-02-04T02:21:16.410Z,-64
2023-02-04T02:26:17.638Z,-64
2023-02-04T02:31:19.011Z,-64
2023-02-04T02:36:20.362Z,-64
2023-02-04T02:41:21.587Z,-64
2023-02-04T02:46:22.857Z,-64
2023-02-04T02:51:24.074Z,-64
2023-02-04T02:56:25.309Z,-64
2023-02-04T03:01:27.318Z,-64
2023-02-04T03:06:28.561Z,-64
2023-02-04T03:11:29.976Z,-64
2023-02-04T03:16:32.791Z,-65
2023-02-04T03:21:34.038Z,-65
2023-02-04T03:26:35.265Z,-65
2023-02-04T03:31:37.815Z,-64
2023-02-04T03:36:39.240Z,-64
2023-02-04T03:41:40.481Z,-64
2023-02-04T03:46:41.671Z,-65
2023-02-04T03:51:42.870Z,-64
2023-02-04T03:56:44.066Z,-64
2023-02-04T04:01:45.541Z,-64
2023-02-04T04:06:46.744Z,-64
2023-02-04T04:11:47.961Z,-64
2023-02-04T04:16:49.194Z,-64
2023-02-04T04:21:50.392Z,-64
2023-02-04T04:26:51.822Z,-64
2023-02-04T04:31:53.137Z,-64
2023-02-04T04:36:54.390Z,-64
2023-02-04T04:41:55.634Z,-64
2023-02-04T04:46:56.851Z,-64
2023-02-04T04:51:58.135Z,-64
2023-02-04T04:56:59.371Z,-65
2023-02-04T05:02:00.548Z,-64
2023-02-04T05:07:01.813Z,-64
2023-02-04T05:12:03.072Z,-64
2023-02-04T05:17:04.294Z,-65
2023-02-04T05:22:05.514Z,-65
2023-02-04T05:27:06.706Z,-64
2023-02-04T05:32:07.894Z,-64
2023-02-04T05:37:09.085Z,-64
2023-02-04T05:42:10.326Z,-64
2023-02-04T05:47:11.525Z,-64
2023-02-04T05:52:12.682Z,-65
2023-02-04T05:57:13.886Z,-64
2023-02-04T06:02:15.141Z,-64
2023-02-04T06:07:16.351Z,-64
2023-02-04T06:12:17.673Z,-65
2023-02-04T06:17:18.877Z,-64
2023-02-04T06:22:20.082Z,-64
2023-02-04T06:27:23.214Z,-64
2023-02-04T06:32:24.458Z,-64
2023-02-04T06:37:25.690Z,-64
2023-02-04T06:42:26.913Z,-65
2023-02-04T06:47:28.139Z,-64
2023-02-04T06:52:29.374Z,-64
2023-02-04T06:57:30.581Z,-64
2023-02-04T07:02:31.780Z,-65
2023-02-04T07:07:32.983Z,-65
2023-02-04T07:12:34.170Z,-65
2023-02-04T07:17:35.427Z,-65
2023-02-04T07:22:36.649Z,-65
2023-02-04T07:27:37.893Z,-65
2023-02-04T07:32:39.076Z,-64
2023-02-04T07:37:40.313Z,-64
2023-02-04T07:42:41.582Z,-64
2023-02-04T07:47:42.778Z,-64
2023-02-04T07:52:44.078Z,-64
2023-02-04T07:57:45.235Z,-64
2023-02-04T08:02:46.509Z,-65
2023-02-04T08:07:47.756Z,-64
2023-02-04T08:12:48.955Z,-65
2023-02-04T08:17:50.171Z,-64
2023-02-04T08:22:51.373Z,-65
2023-02-04T08:27:52.549Z,-65
2023-02-04T08:32:53.796Z,-64
2023-02-04T08:37:55.075Z,-64
2023-02-04T08:42:56.269Z,-64
2023-02-04T08:47:57.465Z,-64
2023-02-04T08:52:58.705Z,-64
2023-02-04T08:58:01.307Z,-64
2023-02-04T09:03:02.567Z,-64
2023-02-04T09:08:04.040Z,-70
2023-02-04T09:13:05.263Z,-65
2023-02-04T09:18:14.765Z,-64
2023-02-04T09:23:16.055Z,-65
2023-02-04T09:28:17.383Z,-65
2023-02-04T09:33:18.639Z,-64
2023-02-04T09:38:19.829Z,-64
2023-02-04T09:43:21.021Z,-64
2023-02-04T09:48:22.295Z,-64
2023-02-04T09:53:23.613Z,-65
2023-02-04T09:58:26.258Z,-65
2023-02-04T10:03:27.558Z,-69
2023-02-04T10:08:29.105Z,-69
2023-02-04T10:13:30.409Z,-67
2023-02-04T10:18:31.621Z,-69
2023-02-04T10:23:32.809Z,-69
2023-02-04T10:28:34.233Z,-69
2023-02-04T10:33:37.468Z,-69
2023-02-04T10:38:38.695Z,-68
2023-02-04T10:43:39.937Z,-68
2023-02-04T10:48:41.166Z,-67
2023-02-04T10:54:01.000Z,-65
2023-02-04T10:59:02.228Z,-66
2023-02-04T11:04:03.453Z,-67
2023-02-04T11:09:04.625Z,-68
2023-02-04T11:14:05.844Z,-70
2023-02-04T11:19:07.136Z,-68
2023-02-04T11:24:08.422Z,-67
2023-02-04T11:29:09.757Z,-67
2023-02-04T11:34:10.996Z,-69
2023-02-04T11:39:12.190Z,-69
2023-02-04T11:44:13.353Z,-68
2023-02-04T11:49:14.586Z,-69
2023-02-04T11:54:17.914Z,-64
2023-02-04T11:59:21.489Z,-68
2023-02-04T12:04:22.770Z,-69
2023-02-04T12:09:24.037Z,-70
2023-02-04T12:14:25.323Z,-69
2023-02-04T12:19:27.719Z,-66
2023-02-04T12:24:29.045Z,-65
2023-02-04T12:29:30.228Z,-65
2023-02-04T12:34:31.604Z,-64
2023-02-04T12:39:32.869Z,-64
2023-02-04T12:44:35.614Z,-64
2023-02-04T12:49:38.090Z,-65
2023-02-04T12:54:39.330Z,-65
2023-02-04T12:59:40.516Z,-65
2023-02-04T13:04:41.733Z,-65
2023-02-04T13:09:43.026Z,-65
2023-02-04T13:14:44.282Z,-64
2023-02-04T13:19:45.479Z,-65
2023-02-04T13:24:46.695Z,-65
2023-02-04T13:29:47.945Z,-65
2023-02-04T13:34:49.135Z,-65
2023-02-04T13:39:50.370Z,-65
2023-02-04T13:44:51.612Z,-64
2023-02-04T13:49:52.830Z,-65
2023-02-04T13:54:55.060Z,-65
2023-02-04T13:59:56.328Z,-65
2023-02-04T14:04:58.502Z,-66
2023-02-04T14:09:59.685Z,-65
2023-02-04T14:15:00.923Z,-66
2023-02-04T14:20:02.959Z,-64
2023-02-04T14:25:04.141Z,-64
2023-02-04T14:30:06.170Z,-64
2023-02-04T14:35:07.425Z,-64
2023-02-04T14:40:08.638Z,-64
2023-02-04T14:45:09.828Z,-64
2023-02-04T14:50:10.982Z,-64
2023-02-04T14:55:12.860Z,-64
2023-02-04T15:00:14.165Z,-64
2023-02-04T15:05:15.441Z,-63
2023-02-04T15:10:16.632Z,-64
2023-02-04T15:15:18.025Z,-64
2023-02-04T15:20:19.285Z,-64
2023-02-04T15:25:20.518Z,-68
2023-02-04T15:30:21.818Z,-64
2023-02-04T15:35:23.062Z,-64
2023-02-04T15:40:24.286Z,-65
2023-02-04T15:45:25.711Z,-65
2023-02-04T15:50:26.960Z,-64
2023-02-04T15:55:28.164Z,-65
2023-02-04T16:00:29.367Z,-65
2023-02-04T16:05:30.581Z,-64
2023-02-04T16:10:32.006Z,-65
2023-02-04T16:15:33.852Z,-65
2023-02-04T16:20:35.339Z,-64
2023-02-04T16:25:36.609Z,-64
2023-02-04T16:30:39.306Z,-65
2023-02-04T16:35:40.553Z,-65
2023-02-04T16:40:41.734Z,-65
2023-02-04T16:45:42.979Z,-65
2023-02-04T16:50:44.215Z,-65
2023-02-04T16:55:45.479Z,-65
2023-02-04T17:00:46.749Z,-65
2023-02-04T17:05:47.959Z,-64
2023-02-04T17:11:07.748Z,-65
2023-02-04T17:16:08.933Z,-65
2023-02-04T17:21:10.151Z,-65
2023-02-04T17:26:11.355Z,-65
2023-02-04T17:31:12.688Z,-65
2023-02-04T17:36:15.195Z,-64
2023-02-04T17:41:17.473Z,-65
2023-02-04T17:46:18.806Z,-64
2023-02-04T17:51:20.017Z,-64
2023-02-04T17:56:21.441Z,-64
2023-02-04T18:01:23.783Z,-64
2023-02-04T18:06:27.055Z,-65
2023-02-04T18:11:28.246Z,-65
2023-02-04T18:16:30.384Z,-65
2023-02-04T18:21:31.736Z,-65
2023-02-04T18:26:32.938Z,-65
2023-02-04T18:31:34.212Z,-65
2023-02-04T18:36:35.461Z,-65
2023-02-04T18:41:38.513Z,-64
2023-02-04T18:46:39.755Z,-64
2023-02-04T18:51:40.989Z,-65
2023-02-04T18:56:42.217Z,-67
2023-02-04T19:01:43.434Z,-68
2023-02-04T19:06:44.728Z,-65
2023-02-04T19:11:45.940Z,-65
2023-02-04T19:16:47.315Z,-64
2023-02-04T19:21:48.848Z,-65
2023-02-04T19:26:50.712Z,-66
2023-02-04T19:31:52.067Z,-65
2023-02-04T19:36:53.320Z,-65
2023-02-04T19:41:54.544Z,-65
2023-02-04T19:46:55.784Z,-65
2023-02-04T19:51:56.976Z,-65
2023-02-04T19:56:58.196Z,-64
2023-02-04T20:01:59.578Z,-65
2023-02-04T20:07:00.850Z,-64
2023-02-04T20:12:08.262Z,-68
2023-02-04T20:17:09.443Z,-66
2023-02-04T20:22:10.657Z,-65
2023-02-04T20:27:11.872Z,-66
2023-02-04T20:32:13.098Z,-65
2023-02-04T20:37:14.278Z,-64
2023-02-04T20:42:15.480Z,-65
2023-02-04T20:47:17.505Z,-64
2023-02-04T20:52:18.687Z,-64
2023-02-04T20:57:19.941Z,-64
2023-02-04T21:02:21.119Z,-67
2023-02-04T21:07:22.415Z,-65
2023-02-04T21:12:26.489Z,-65
2023-02-04T21:17:27.679Z,-65
2023-02-04T21:22:29.019Z,-65
2023-02-04T21:27:30.183Z,-64
2023-02-04T21:32:31.443Z,-65
2023-02-04T21:37:32.699Z,-64
2023-02-04T21:42:33.928Z,-64
2023-02-04T21:47:35.206Z,-65
2023-02-04T21:52:36.380Z,-64
2023-02-04T21:57:37.572Z,-66
2023-02-04T22:02:38.822Z,-67
2023-02-04T22:07:40.475Z,-64
2023-02-04T22:12:41.716Z,-63
2023-02-04T22:17:42.873Z,-64
2023-02-04T22:22:44.225Z,-64
2023-02-04T22:27:45.561Z,-64
2023-02-04T22:32:46.804Z,-67
2023-02-04T22:37:47.998Z,-65
2023-02-04T22:42:49.202Z,-64
2023-02-04T22:47:50.500Z,-64
2023-02-04T22:52:51.658Z,-63
2023-02-04T22:57:52.873Z,-64
2023-02-04T23:02:54.094Z,-64
2023-02-04T23:07:55.305Z,-64
2023-02-04T23:12:56.504Z,-63
2023-02-04T23:17:57.689Z,-64
2023-02-04T23:22:58.858Z,-63
2023-02-04T23:28:00.143Z,-63
2023-02-04T23:33:01.398Z,-64
2023-02-04T23:38:02.595Z,-64
2023-02-04T23:43:03.915Z,-63
2023-02-04T23:48:05.260Z,-64
2023-02-04T23:53:06.439Z,-64
2023-02-04T23:58:07.628Z,-64
